createdAt,value
2023-04-29T00:01:03.580Z,4.00
2023-04-29T00:03:32.509Z,4.43
2023-04-29T00:06:00.157Z,3.23
2023-04-29T00:08:27.015Z,3.10
2023-04-29T00:10:53.524Z,2.20
2023-04-29T00:13:20.035Z,2.30
2023-04-29T00:15:46.514Z,3.13
2023-04-29T00:18:14.078Z,5.83
2023-04-29T00:20:40.621Z,5.43
2023-04-29T00:23:07.689Z,4.87
2023-04-29T00:25:34.215Z,3.40
2023-04-29T00:28:02.172Z,5.13
2023-04-29T00:30:29.100Z,4.03
2023-04-29T00:32:55.743Z,3.63
2023-04-29T00:35:22.382Z,3.03
2023-04-29T00:37:49.403Z,4.73
2023-04-29T00:40:17.358Z,3.27
2023-04-29T00:42:43.894Z,2.70
2023-04-29T00:45:13.834Z,3.03
2023-04-29T00:47:40.375Z,3.23
2023-04-29T00:50:07.896Z,3.57
2023-04-29T00:52:35.224Z,4.70
2023-04-29T00:55:02.662Z,4.27
2023-04-29T00:57:30.092Z,2.90
2023-04-29T00:59:58.415Z,3.57
2023-04-29T01:02:26.610Z,3.03
2023-04-29T01:04:53.183Z,3.93
2023-04-29T01:07:34.511Z,3.30
2023-04-29T01:10:10.655Z,3.27
2023-04-29T01:12:37.106Z,2.70
2023-04-29T01:15:09.034Z,2.07
2023-04-29T01:17:47.630Z,2.30
2023-04-29T01:20:15.456Z,1.50
2023-04-29T01:22:42.442Z,1.80
2023-04-29T01:25:09.974Z,3.33
2023-04-29T01:28:24.245Z,2.53
2023-04-29T01:31:11.264Z,1.33
2023-04-29T01:33:42.874Z,1.70
2023-04-29T01:36:19.570Z,1.80
2023-04-29T01:38:58.087Z,1.80
2023-04-29T01:41:49.287Z,2.07
2023-04-29T01:44:27.259Z,1.80
2023-04-29T01:46:54.413Z,1.37
2023-04-29T01:49:27.905Z,1.63
2023-04-29T01:51:55.868Z,2.43
2023-04-29T01:54:22.854Z,16.13
2023-04-29T01:56:49.614Z,11.30
2023-04-29T01:59:23.603Z,5.90
2023-04-29T02:02:05.555Z,11.17
2023-04-29T02:04:34.434Z,26.83
2023-04-29T02:07:03.252Z,23.37
2023-04-29T02:09:30.304Z,18.27
2023-04-29T02:12:05.727Z,6.53
2023-04-29T02:14:35.042Z,4.07
2023-04-29T02:17:03.610Z,3.23
2023-04-29T02:19:30.544Z,3.30
2023-04-29T02:21:57.147Z,3.23
2023-04-29T02:24:25.645Z,2.93
2023-04-29T02:26:52.158Z,3.23
2023-04-29T02:29:19.023Z,3.23
2023-04-29T02:31:45.608Z,2.87
2023-04-29T02:34:12.142Z,4.60
2023-04-29T02:36:38.624Z,4.27
2023-04-29T02:39:05.288Z,4.20
2023-04-29T02:41:31.721Z,3.10
2023-04-29T02:43:58.173Z,3.10
2023-04-29T02:46:24.851Z,3.83
2023-04-29T02:48:52.891Z,3.40
2023-04-29T02:51:20.080Z,4.63
2023-04-29T02:53:46.836Z,4.50
2023-04-29T02:56:13.273Z,3.43
2023-04-29T02:58:39.839Z,3.83
2023-04-29T03:01:07.125Z,6.00
2023-04-29T03:03:33.744Z,4.27
2023-04-29T03:06:00.349Z,3.20
2023-04-29T03:08:27.970Z,3.10
2023-04-29T03:10:54.465Z,3.00
2023-04-29T03:13:20.999Z,2.67
2023-04-29T03:15:47.612Z,3.00
2023-04-29T03:18:14.563Z,3.30
2023-04-29T03:20:41.037Z,3.53
2023-04-29T03:23:07.475Z,3.03
2023-04-29T03:25:33.931Z,3.10
2023-04-29T03:28:00.378Z,3.43
2023-04-29T03:30:26.945Z,4.73
2023-04-29T03:32:56.723Z,2.97
2023-04-29T03:35:23.660Z,6.03
2023-04-29T03:38:16.134Z,2.87
2023-04-29T03:40:44.931Z,2.77
2023-04-29T03:43:12.455Z,3.33
2023-04-29T03:45:39.109Z,3.70
2023-04-29T03:48:06.504Z,3.03
2023-04-29T03:50:33.125Z,4.03
2023-04-29T03:52:59.687Z,4.57
2023-04-29T03:55:29.437Z,3.30
2023-04-29T03:57:55.867Z,2.97
2023-04-29T04:00:22.522Z,3.70
2023-04-29T04:02:54.193Z,3.50
2023-04-29T04:05:21.481Z,2.90
2023-04-29T04:07:53.217Z,3.10
2023-04-29T04:10:31.858Z,2.77
2023-04-29T04:13:00.654Z,3.17
2023-04-29T04:15:27.113Z,3.13
2023-04-29T04:17:53.855Z,2.80
2023-04-29T04:20:20.515Z,2.70
2023-04-29T04:22:49.113Z,2.37
2023-04-29T04:25:20.501Z,3.10
2023-04-29T04:27:47.077Z,3.30
2023-04-29T04:30:23.429Z,4.17
2023-04-29T04:32:49.929Z,3.87
2023-04-29T04:35:16.754Z,4.60
2023-04-29T04:37:43.290Z,3.87
2023-04-29T04:40:11.944Z,3.40
2023-04-29T04:42:55.283Z,3.23
2023-04-29T04:45:22.641Z,3.53
2023-04-29T04:47:50.835Z,2.97
2023-04-29T04:50:21.340Z,2.97
2023-04-29T04:52:50.653Z,2.53
2023-04-29T04:55:37.089Z,3.13
2023-04-29T04:58:03.739Z,4.53
2023-04-29T05:00:30.376Z,3.10
2023-04-29T05:02:57.313Z,3.83
2023-04-29T05:05:24.178Z,3.50
2023-04-29T05:07:51.319Z,2.73
2023-04-29T05:10:26.372Z,2.77
2023-04-29T05:12:54.883Z,2.90
2023-04-29T05:15:21.643Z,4.07
2023-04-29T05:17:51.086Z,2.90
2023-04-29T05:20:17.718Z,2.80
2023-04-29T05:22:44.177Z,2.90
2023-04-29T05:25:10.755Z,3.30
2023-04-29T05:27:37.204Z,3.00
2023-04-29T05:30:07.339Z,3.10
2023-04-29T05:32:34.141Z,3.27
2023-04-29T05:35:00.906Z,3.03
2023-04-29T05:37:30.899Z,3.73
2023-04-29T05:40:13.821Z,2.80
2023-04-29T05:42:46.482Z,2.30
2023-04-29T05:45:13.102Z,1.97
2023-04-29T05:47:39.643Z,3.70
2023-04-29T05:50:06.787Z,2.77
2023-04-29T05:52:33.228Z,2.00
2023-04-29T05:54:59.742Z,2.73
2023-04-29T05:57:26.194Z,2.40
2023-04-29T05:59:55.291Z,3.10
2023-04-29T06:02:22.270Z,2.73
2023-04-29T06:04:49.281Z,3.00
2023-04-29T06:07:27.951Z,3.40
2023-04-29T06:09:59.030Z,2.90
2023-04-29T06:12:26.531Z,2.70
2023-04-29T06:14:53.152Z,2.50
2023-04-29T06:17:20.401Z,2.50
2023-04-29T06:19:46.896Z,4.50
2023-04-29T06:22:13.378Z,2.80
2023-04-29T06:24:47.323Z,2.80
2023-04-29T06:27:18.894Z,2.40
2023-04-29T06:29:45.645Z,3.40
2023-04-29T06:32:13.940Z,3.63
2023-04-29T06:34:40.750Z,3.13
2023-04-29T06:37:23.424Z,5.37
2023-04-29T06:39:56.996Z,4.80
2023-04-29T06:42:41.611Z,4.40
2023-04-29T06:45:31.916Z,4.40
2023-04-29T06:48:22.245Z,4.07
2023-04-29T06:50:58.524Z,4.23
2023-04-29T06:53:25.008Z,5.23
2023-04-29T06:55:51.843Z,5.37
2023-04-29T06:58:20.366Z,6.10
2023-04-29T07:00:48.703Z,5.20
2023-04-29T07:03:16.033Z,5.73
2023-04-29T07:05:45.308Z,5.40
2023-04-29T07:08:12.973Z,7.63
2023-04-29T07:10:39.606Z,7.30
2023-04-29T07:13:06.065Z,6.53
2023-04-29T07:15:36.859Z,6.70
2023-04-29T07:18:05.299Z,8.27
2023-04-29T07:20:32.428Z,6.87
2023-04-29T07:22:59.316Z,7.07
2023-04-29T07:25:29.481Z,7.53
2023-04-29T07:27:56.610Z,5.60
2023-04-29T07:30:25.142Z,6.33
2023-04-29T07:32:51.853Z,5.60
2023-04-29T07:35:18.943Z,8.00
2023-04-29T07:37:45.865Z,7.23
2023-04-29T07:40:13.073Z,7.50
2023-04-29T07:42:39.603Z,7.50
2023-04-29T07:45:07.861Z,8.43
2023-04-29T07:47:34.435Z,11.90
2023-04-29T07:50:01.271Z,11.10
2023-04-29T07:52:27.845Z,10.73
2023-04-29T07:54:56.176Z,10.83
2023-04-29T07:57:22.997Z,9.17
2023-04-29T07:59:55.560Z,11.13
2023-04-29T08:02:22.150Z,10.83
2023-04-29T08:04:51.297Z,11.70
2023-04-29T08:07:18.156Z,13.27
2023-04-29T08:09:44.675Z,10.80
2023-04-29T08:12:11.101Z,12.50
2023-04-29T08:14:40.274Z,11.23
2023-04-29T08:17:07.423Z,11.53
2023-04-29T08:19:33.980Z,12.83
2023-04-29T08:22:01.152Z,12.57
2023-04-29T08:24:29.029Z,12.87
2023-04-29T08:26:55.487Z,15.40
2023-04-29T08:29:21.955Z,10.73
2023-04-29T08:31:48.497Z,13.53
2023-04-29T08:34:15.048Z,13.20
2023-04-29T08:36:41.545Z,11.83
2023-04-29T08:39:08.851Z,12.33
2023-04-29T08:41:39.968Z,12.17
2023-04-29T08:44:06.952Z,12.10
2023-04-29T08:46:33.799Z,12.50
2023-04-29T08:49:03.810Z,9.57
2023-04-29T08:51:32.244Z,12.57
2023-04-29T08:53:58.792Z,9.87
2023-04-29T08:56:27.854Z,13.30
2023-04-29T08:58:58.298Z,12.10
2023-04-29T09:01:28.750Z,8.97
2023-04-29T09:04:10.256Z,9.70
2023-04-29T09:06:36.909Z,8.73
2023-04-29T09:09:03.815Z,8.73
2023-04-29T09:11:30.459Z,8.07
2023-04-29T09:14:04.493Z,10.37
2023-04-29T09:16:31.230Z,9.00
2023-04-29T09:18:58.102Z,9.63
2023-04-29T09:21:29.525Z,7.40
2023-04-29T09:23:57.964Z,8.47
2023-04-29T09:26:25.049Z,9.87
2023-04-29T09:29:06.522Z,8.27
2023-04-29T09:31:33.429Z,7.60
2023-04-29T09:33:59.937Z,8.73
2023-04-29T09:36:49.634Z,7.07
2023-04-29T09:39:20.958Z,6.70
2023-04-29T09:41:50.560Z,7.70
2023-04-29T09:44:17.146Z,6.90
2023-04-29T09:46:43.937Z,6.83
2023-04-29T09:49:32.724Z,7.07
2023-04-29T09:52:01.392Z,6.30
2023-04-29T09:54:29.813Z,6.40
2023-04-29T09:56:58.491Z,9.20
2023-04-29T09:59:25.593Z,4.73
2023-04-29T10:01:54.481Z,5.53
2023-04-29T10:04:22.725Z,4.20
2023-04-29T10:06:51.417Z,3.60
2023-04-29T10:09:19.502Z,3.63
2023-04-29T10:11:48.090Z,4.67
2023-04-29T10:14:22.442Z,4.30
2023-04-29T10:16:54.484Z,6.07
2023-04-29T10:19:27.614Z,4.23
2023-04-29T10:21:57.714Z,4.83
2023-04-29T10:24:25.815Z,5.93
2023-04-29T10:26:56.110Z,6.43
2023-04-29T10:29:25.397Z,5.17
2023-04-29T10:31:53.165Z,4.23
2023-04-29T10:34:20.580Z,4.10
2023-04-29T10:36:47.411Z,4.20
2023-04-29T10:39:26.328Z,2.90
2023-04-29T10:41:53.888Z,3.77
2023-04-29T10:44:20.339Z,4.20
2023-04-29T10:46:46.856Z,4.20
2023-04-29T10:49:13.350Z,4.37
2023-04-29T10:51:45.018Z,4.00
2023-04-29T10:54:16.629Z,3.90
2023-04-29T10:56:50.953Z,3.70
2023-04-29T10:59:22.099Z,3.97
2023-04-29T11:01:55.211Z,5.07
2023-04-29T11:04:22.949Z,5.00
2023-04-29T11:06:55.317Z,4.90
2023-04-29T11:09:30.664Z,3.77
2023-04-29T11:12:05.348Z,4.13
2023-04-29T11:14:51.255Z,5.23
2023-04-29T11:17:23.285Z,4.90
2023-04-29T11:19:51.648Z,5.83
2023-04-29T11:22:37.751Z,5.07
2023-04-29T11:25:19.023Z,5.07
2023-04-29T11:33:41.793Z,5.77
2023-04-29T11:36:17.364Z,5.93
2023-04-29T11:38:59.428Z,5.27
2023-04-29T11:41:33.969Z,6.47
2023-04-29T11:44:11.012Z,5.53
2023-04-29T11:46:47.947Z,6.70
2023-04-29T11:49:16.910Z,6.40
2023-04-29T11:51:43.409Z,4.77
2023-04-29T11:54:09.916Z,4.93
2023-04-29T11:56:38.217Z,5.63
2023-04-29T11:59:08.031Z,5.67
2023-04-29T12:01:35.890Z,5.93
2023-04-29T12:04:03.294Z,10.23
2023-04-29T12:06:30.637Z,7.37
2023-04-29T12:09:01.742Z,5.83
2023-04-29T12:11:28.850Z,7.30
2023-04-29T12:13:56.692Z,7.80
2023-04-29T12:16:24.159Z,8.43
2023-04-29T12:18:54.157Z,7.57
2023-04-29T12:21:22.522Z,7.77
2023-04-29T12:23:49.024Z,6.27
2023-04-29T12:26:17.302Z,8.43
2023-04-29T12:28:43.739Z,8.33
2023-04-29T12:31:13.959Z,8.10
2023-04-29T12:33:44.259Z,6.30
2023-04-29T12:36:18.400Z,8.40
2023-04-29T12:38:45.410Z,7.67
2023-04-29T12:41:14.440Z,7.60
2023-04-29T12:43:41.675Z,6.90
2023-04-29T12:46:10.039Z,7.47
2023-04-29T12:48:44.012Z,6.23
2023-04-29T12:51:11.552Z,7.73
2023-04-29T12:53:38.896Z,9.40
2023-04-29T12:56:06.492Z,7.83
2023-04-29T12:58:34.830Z,9.37
2023-04-29T13:01:01.411Z,7.90
2023-04-29T13:03:28.671Z,8.90
2023-04-29T13:05:55.313Z,8.47
2023-04-29T13:08:22.718Z,9.13
2023-04-29T13:10:49.633Z,11.77
2023-04-29T13:13:16.277Z,8.33
2023-04-29T13:15:42.766Z,6.10
2023-04-29T13:18:09.217Z,5.43
2023-04-29T13:20:40.957Z,5.47
2023-04-29T13:23:08.665Z,6.33
2023-04-29T13:25:35.131Z,4.70
2023-04-29T13:28:01.924Z,4.70
2023-04-29T13:30:28.431Z,4.37
2023-04-29T13:32:59.257Z,4.33
2023-04-29T13:35:35.976Z,5.07
2023-04-29T13:38:02.792Z,5.47
2023-04-29T13:40:30.864Z,4.77
2023-04-29T13:43:04.352Z,3.87
2023-04-29T13:45:38.783Z,3.90
2023-04-29T13:48:16.309Z,4.83
2023-04-29T13:53:50.856Z,3.63
2023-04-29T13:59:19.526Z,3.83
2023-04-29T14:02:14.931Z,4.03
2023-04-29T14:04:11.604Z,3.87
2023-04-29T14:06:38.363Z,3.30
2023-04-29T14:09:04.819Z,3.63
2023-04-29T14:11:31.777Z,3.40
2023-04-29T14:13:58.212Z,3.80
2023-04-29T14:16:24.854Z,4.43
2023-04-29T14:18:51.488Z,5.40
2023-04-29T14:21:17.995Z,5.47
2023-04-29T14:23:44.513Z,4.50
2023-04-29T14:26:27.302Z,4.57
2023-04-29T14:28:59.698Z,4.97
2023-04-29T14:31:28.166Z,5.03
2023-04-29T14:33:59.634Z,4.80
2023-04-29T14:36:26.811Z,5.00
2023-04-29T14:38:54.094Z,4.47
2023-04-29T14:41:23.571Z,5.97
2023-04-29T14:43:50.073Z,4.63
2023-04-29T14:46:17.018Z,6.17
2023-04-29T14:48:43.748Z,5.10
2023-04-29T14:51:10.625Z,4.40
2023-04-29T14:53:37.158Z,3.80
2023-04-29T14:56:03.873Z,3.60
2023-04-29T14:58:30.522Z,5.33
2023-04-29T15:00:57.052Z,4.10
2023-04-29T15:03:23.624Z,3.70
2023-04-29T15:05:51.386Z,4.53
2023-04-29T15:08:19.160Z,3.87
2023-04-29T15:10:47.326Z,5.60
2023-04-29T15:13:13.875Z,3.90
2023-04-29T15:15:40.755Z,3.70
2023-04-29T15:18:08.785Z,3.93
2023-04-29T15:20:36.680Z,4.13
2023-04-29T15:23:04.173Z,4.03
2023-04-29T15:25:33.321Z,3.50
2023-04-29T15:28:00.345Z,3.30
2023-04-29T15:30:27.269Z,3.60
2023-04-29T15:32:54.962Z,3.67
2023-04-29T15:35:21.612Z,3.40
2023-04-29T15:37:48.046Z,3.07
2023-04-29T15:40:14.623Z,3.40
2023-04-29T15:42:41.070Z,4.17
2023-04-29T15:45:08.831Z,3.20
2023-04-29T15:47:35.916Z,3.13
2023-04-29T15:50:03.237Z,3.63
2023-04-29T15:52:29.682Z,3.07
2023-04-29T15:54:56.131Z,3.80
2023-04-29T15:57:22.618Z,2.70
2023-04-29T15:59:49.109Z,3.37
2023-04-29T16:02:15.979Z,3.33
2023-04-29T16:04:42.443Z,3.60
2023-04-29T16:07:09.150Z,3.70
2023-04-29T16:09:35.870Z,5.37
2023-04-29T16:12:02.392Z,4.07
2023-04-29T16:14:29.977Z,3.70
2023-04-29T16:16:56.594Z,3.30
2023-04-29T16:19:23.167Z,4.23
2023-04-29T16:21:49.617Z,4.83
2023-04-29T16:24:16.137Z,4.50
2023-04-29T16:26:42.780Z,4.10
2023-04-29T16:29:10.016Z,4.73
2023-04-29T16:31:36.514Z,5.27
2023-04-29T16:34:03.300Z,5.30
2023-04-29T16:36:30.133Z,5.10
2023-04-29T16:38:57.861Z,5.20
2023-04-29T16:41:26.018Z,6.63
2023-04-29T16:43:55.823Z,5.90
2023-04-29T16:46:22.430Z,5.13
2023-04-29T16:48:51.830Z,4.73
2023-04-29T16:51:18.813Z,6.40
2023-04-29T16:53:45.726Z,6.10
2023-04-29T16:56:12.368Z,7.60
2023-04-29T16:58:38.959Z,6.17
2023-04-29T17:01:07.270Z,6.50
2023-04-29T17:03:33.833Z,7.13
2023-04-29T17:06:00.504Z,6.53
2023-04-29T17:08:27.213Z,5.67
2023-04-29T17:10:53.961Z,5.70
2023-04-29T17:13:20.732Z,5.80
2023-04-29T17:15:47.813Z,5.70
2023-04-29T17:18:14.317Z,7.07
2023-04-29T17:20:42.028Z,5.90
2023-04-29T17:23:08.796Z,7.27
2023-04-29T17:25:37.517Z,7.77
2023-04-29T17:28:04.537Z,9.40
2023-04-29T17:30:31.328Z,8.47
2023-04-29T17:32:57.933Z,9.33
2023-04-29T17:35:24.695Z,10.83
2023-04-29T17:37:51.159Z,9.77
2023-04-29T17:40:17.619Z,10.20
2023-04-29T17:42:44.079Z,9.13
2023-04-29T17:45:11.168Z,11.10
2023-04-29T17:47:37.599Z,12.97
2023-04-29T17:50:04.267Z,10.27
2023-04-29T17:52:31.505Z,11.10
2023-04-29T17:54:57.971Z,12.07
2023-04-29T17:57:24.446Z,10.67
2023-04-29T17:59:50.987Z,20.27
2023-04-29T18:02:17.431Z,19.33
2023-04-29T18:04:43.850Z,13.73
2023-04-29T18:07:10.396Z,13.33
2023-04-29T18:09:36.849Z,16.57
2023-04-29T18:12:03.633Z,14.90
2023-04-29T18:14:31.007Z,14.63
2023-04-29T18:17:00.917Z,14.23
2023-04-29T18:19:28.061Z,15.27
2023-04-29T18:21:59.201Z,17.17
2023-04-29T18:24:26.049Z,19.97
2023-04-29T18:26:52.672Z,18.00
2023-04-29T18:29:19.093Z,19.30
2023-04-29T18:31:46.235Z,18.37
2023-04-29T18:34:12.698Z,17.67
2023-04-29T18:36:39.128Z,19.70
2023-04-29T18:39:05.554Z,18.87
2023-04-29T18:41:33.090Z,18.40
2023-04-29T18:43:59.504Z,18.63
2023-04-29T18:46:26.011Z,17.73
2023-04-29T18:48:52.442Z,16.87
2023-04-29T18:51:19.093Z,18.53
2023-04-29T18:53:45.623Z,17.47
2023-04-29T18:56:12.252Z,19.93
2023-04-29T18:58:38.673Z,19.20
2023-04-29T19:01:05.905Z,20.37
2023-04-29T19:03:32.408Z,18.20
2023-04-29T19:05:58.967Z,20.20
2023-04-29T19:08:25.799Z,19.93
2023-04-29T19:10:53.460Z,20.13
2023-04-29T19:13:19.993Z,18.03
2023-04-29T19:15:50.445Z,17.17
2023-04-29T19:18:20.258Z,21.43
2023-04-29T19:20:47.000Z,20.37
2023-04-29T19:23:13.458Z,19.73
2023-04-29T19:25:40.011Z,21.87
2023-04-29T19:28:06.486Z,18.90
2023-04-29T19:30:33.410Z,21.97
2023-04-29T19:32:59.921Z,22.83
2023-04-29T19:35:26.956Z,23.00
2023-04-29T19:37:54.773Z,22.10
2023-04-29T19:40:21.252Z,22.67
2023-04-29T19:42:47.705Z,22.80
2023-04-29T19:45:14.315Z,24.90
2023-04-29T19:47:41.009Z,24.20
2023-04-29T19:50:07.802Z,23.80
2023-04-29T19:52:34.306Z,21.90
2023-04-29T19:55:00.798Z,25.17
2023-04-29T19:57:28.318Z,23.03
2023-04-29T19:59:54.998Z,24.07
2023-04-29T20:02:21.922Z,21.87
2023-04-29T20:04:48.384Z,24.70
2023-04-29T20:07:15.012Z,23.80
2023-04-29T20:09:41.571Z,23.87
2023-04-29T20:12:08.048Z,21.97
2023-04-29T20:14:34.498Z,25.20
2023-04-29T20:17:01.184Z,26.03
2023-04-29T20:19:27.782Z,22.93
2023-04-29T20:21:54.331Z,22.73
2023-04-29T20:24:20.859Z,24.33
2023-04-29T20:26:47.597Z,24.03
2023-04-29T20:32:10.873Z,24.37
2023-04-29T20:34:40.028Z,24.07
2023-04-29T20:37:09.433Z,22.97
2023-04-29T20:40:36.611Z,23.27
2023-04-29T20:43:14.337Z,22.27
2023-04-29T20:46:07.212Z,20.77
2023-04-29T20:49:06.006Z,21.87
2023-04-29T20:51:59.731Z,21.50
2023-04-29T20:55:12.108Z,23.87
2023-04-29T20:58:12.168Z,19.60
2023-04-29T21:01:02.409Z,21.73
2023-04-29T21:04:02.948Z,22.30
2023-04-29T21:06:32.135Z,23.60
2023-04-29T21:09:10.407Z,21.67
2023-04-29T21:12:15.706Z,19.87
2023-04-29T21:14:49.270Z,22.77
2023-04-29T21:17:19.539Z,21.77
2023-04-29T21:20:12.614Z,21.60
2023-04-29T21:22:44.126Z,21.43
2023-04-29T21:25:12.827Z,22.43
2023-04-29T21:27:41.482Z,22.63
2023-04-29T21:30:22.976Z,19.07
2023-04-29T21:33:09.933Z,21.00
2023-04-29T21:35:57.757Z,20.17
2023-04-29T21:38:30.069Z,20.77
2023-04-29T21:40:59.689Z,21.17
2023-04-29T21:43:27.625Z,19.07
2023-04-29T21:45:54.786Z,17.57
2023-04-29T21:48:21.890Z,18.20
2023-04-29T21:50:48.881Z,19.60
2023-04-29T21:53:16.572Z,17.33
2023-04-29T21:55:43.288Z,15.33
2023-04-29T21:58:10.908Z,17.40
2023-04-29T22:00:39.075Z,16.87
2023-04-29T22:03:10.766Z,16.60
2023-04-29T22:05:37.348Z,14.53
2023-04-29T22:08:07.017Z,14.90
2023-04-29T22:10:33.522Z,16.07
2023-04-29T22:13:00.080Z,14.57
2023-04-29T22:15:28.756Z,15.10
2023-04-29T22:17:56.835Z,15.80
2023-04-29T22:20:23.459Z,15.57
2023-04-29T22:22:49.976Z,16.73
2023-04-29T22:25:16.547Z,16.13
2023-04-29T22:27:42.998Z,15.67
2023-04-29T22:30:09.855Z,15.03
2023-04-29T22:32:36.351Z,13.73
2023-04-29T22:35:03.017Z,16.10
2023-04-29T22:37:29.499Z,16.37
2023-04-29T22:39:56.853Z,15.20
2023-04-29T22:42:23.584Z,15.20
2023-04-29T22:44:50.029Z,16.27
2023-04-29T22:47:16.786Z,14.60
2023-04-29T22:49:43.289Z,14.93
2023-04-29T22:52:09.780Z,14.87
2023-04-29T22:54:36.291Z,16.60
2023-04-29T22:57:03.958Z,16.27
2023-04-29T22:59:30.726Z,16.20
2023-04-29T23:01:57.369Z,17.83
2023-04-29T23:04:24.706Z,15.23
2023-04-29T23:06:51.678Z,15.90
2023-04-29T23:09:18.190Z,18.97
2023-04-29T23:11:44.924Z,15.53
2023-04-29T23:14:11.396Z,18.23
2023-04-29T23:16:37.841Z,19.50
2023-04-29T23:19:04.699Z,17.30
2023-04-29T23:21:31.167Z,18.13
2023-04-29T23:23:57.733Z,19.30
2023-04-29T23:26:24.256Z,19.43
2023-04-29T23:28:50.722Z,21.33
2023-04-29T23:31:17.276Z,19.47
2023-04-29T23:33:44.224Z,16.27
2023-04-29T23:36:11.762Z,17.37
2023-04-29T23:38:38.256Z,16.27
2023-04-29T23:41:04.918Z,17.70
2023-04-29T23:43:32.055Z,17.30
2023-04-29T23:45:58.529Z,15.47
2023-04-29T23:48:25.022Z,17.93
2023-04-29T23:50:51.457Z,19.07
2023-04-29T23:53:18.660Z,18.93
2023-04-29T23:55:45.346Z,20.17
2023-04-29T23:58:11.850Z,18.13
